Time;durP1;ratioP1;P1;durP2;ratioP2;P2;SDS_P1;SDS_P2;PMS_P1;PMS_P2;Temp;Humidity;BMP_temperature;BMP_pressure;BME280_temperature;BME280_humidity;BME280_pressure;Samples;Min_cycle;Max_cycle;Signal;HPM_P1;HPM_P2
2023/07/21 00:00:10;;;;;;;11.40;7.50;;;;;;;26.68;51.58;99399.45;108171;1253;71427;-70
2023/07/21 00:02:38;;;;;;;13.60;7.30;;;;;;;26.56;51.59;99397.38;108139;1253;61752;-70
2023/07/21 00:05:06;;;;;;;10.40;7.20;;;;;;;26.49;51.64;99400.72;108101;1253;59995;-71
2023/07/21 00:07:35;;;;;;;9.20;6.60;;;;;;;26.40;52.09;99392.77;107999;1254;73862;-68
2023/07/21 00:10:12;;;;;;;7.70;6.40;;;;;;;26.24;52.26;99393.48;108066;1257;70335;-67
2023/07/21 00:12:47;;;;;;;11.10;6.80;;;;;;;26.16;52.35;99394.95;108232;1254;71398;-68
2023/07/21 00:15:17;;;;;;;11.90;6.70;;;;;;;26.17;52.30;99398.39;108049;1254;62194;-70
2023/07/21 00:17:47;;;;;;;12.40;6.90;;;;;;;26.16;52.49;99406.99;108114;1253;60176;-69
2023/07/21 00:20:19;;;;;;;10.60;6.60;;;;;;;26.22;52.28;99413.56;108029;1254;73904;-70
2023/07/21 00:22:47;;;;;;;7.70;5.80;;;;;;;26.35;51.85;99409.48;108083;1253;70558;-68
2023/07/21 00:25:15;;;;;;;10.70;6.50;;;;;;;26.37;51.76;99410.69;108208;1254;72647;-69
2023/07/21 00:27:42;;;;;;;8.20;6.60;;;;;;;26.41;51.53;99414.46;108142;1253;60438;-70
2023/07/21 00:30:10;;;;;;;9.30;6.60;;;;;;;26.37;51.69;99410.92;108185;1252;60535;-69
2023/07/21 00:32:39;;;;;;;8.40;6.70;;;;;;;26.35;51.41;99407.31;108216;1254;74365;-70
2023/07/21 00:35:08;;;;;;;7.10;5.80;;;;;;;26.27;51.49;99405.91;108207;1253;68573;-69
2023/07/21 00:37:36;;;;;;;8.30;6.70;;;;;;;26.26;51.13;99413.61;108298;1253;71616;-69
2023/07/21 00:40:09;;;;;;;8.70;6.90;;;;;;;26.25;51.08;99416.82;108093;1253;61784;-69
2023/07/21 00:42:37;;;;;;;11.50;6.50;;;;;;;26.13;51.09;99416.33;108242;1253;60442;-71
2023/07/21 00:45:06;;;;;;;7.70;6.80;;;;;;;26.09;51.34;99418.27;108047;1254;73853;-69
2023/07/21 00:47:34;;;;;;;7.70;6.50;;;;;;;26.15;51.10;99416.64;108283;1254;68768;-69
2023/07/21 00:50:01;;;;;;;9.90;6.40;;;;;;;26.16;51.27;99416.58;108200;1252;73069;-68
2023/07/21 00:52:29;;;;;;;10.90;6.60;;;;;;;26.08;51.29;99417.26;108163;1254;60360;-68
2023/07/21 00:54:57;;;;;;;8.50;6.40;;;;;;;25.96;51.53;99415.77;108129;1254;60417;-69
2023/07/21 00:57:24;;;;;;;7.80;6.30;;;;;;;25.89;51.48;99418.77;108242;1253;71933;-67
2023/07/21 00:59:51;;;;;;;11.50;6.30;;;;;;;25.89;51.41;99422.80;108208;1253;69171;-69
2023/07/21 01:02:19;;;;;;;15.00;6.40;;;;;;;25.80;51.57;99424.59;108162;1254;71127;-70
2023/07/21 01:04:46;;;;;;;8.00;6.30;;;;;;;25.56;51.93;99422.51;108288;1253;63281;-68
2023/07/21 01:07:15;;;;;;;8.70;6.00;;;;;;;25.67;51.57;99421.31;108221;1252;60431;-67
2023/07/21 01:09:43;;;;;;;5.90;5.40;;;;;;;25.57;51.81;99424.20;108184;1254;72968;-68
2023/07/21 01:12:11;;;;;;;7.30;5.90;;;;;;;25.68;51.41;99418.32;108060;1252;70538;-69
2023/07/21 01:14:38;;;;;;;10.10;6.40;;;;;;;25.52;51.56;99423.13;108129;1253;72383;-65
2023/07/21 01:17:07;;;;;;;7.00;5.80;;;;;;;25.69;51.16;99422.99;108239;1252;61653;-67
2023/07/21 01:19:36;;;;;;;8.60;6.50;;;;;;;25.83;50.75;99419.56;108227;1253;60276;-67
2023/07/21 01:22:15;;;;;;;9.50;6.90;;;;;;;25.93;50.48;99422.59;108131;1254;71931;-70
2023/07/21 01:24:59;;;;;;;10.70;7.50;;;;;;;25.78;50.64;99424.60;108085;1254;69567;-67
2023/07/21 01:27:27;;;;;;;13.20;8.90;;;;;;;25.75;50.67;99422.00;107940;1254;72741;-69
2023/07/21 01:29:56;;;;;;;12.40;9.50;;;;;;;25.82;50.42;99421.84;108018;1254;61772;-69
2023/07/21 01:32:26;;;;;;;10.80;9.40;;;;;;;25.72;50.66;99426.31;108023;1254;60306;-69
2023/07/21 01:34:54;;;;;;;9.70;8.60;;;;;;;25.68;50.64;99429.95;108082;1254;72951;-68
2023/07/21 01:37:23;;;;;;;10.70;9.10;;;;;;;25.68;50.68;99431.04;107981;1260;70471;-69
2023/07/21 01:39:51;;;;;;;11.50;9.90;;;;;;;25.71;50.57;99434.82;108235;1256;72775;-67
2023/07/21 01:42:19;;;;;;;11.00;8.90;;;;;;;25.76;50.39;99439.90;108099;1254;61688;-67
2023/07/21 01:44:47;;;;;;;12.40;9.20;;;;;;;25.85;50.33;99445.90;108106;1253;60322;-67
2023/07/21 01:47:15;;;;;;;11.30;9.30;;;;;;;25.73;50.47;99447.95;108005;1254;73848;-68
2023/07/21 01:49:42;;;;;;;10.20;8.30;;;;;;;25.82;50.31;99448.07;108031;1253;68767;-66
2023/07/21 01:52:16;;;;;;;10.80;8.40;;;;;;;25.93;50.07;99455.48;108163;1254;73187;-68
2023/07/21 01:54:46;;;;;;;8.60;7.70;;;;;;;25.89;49.81;99460.58;108131;1254;60455;-66
2023/07/21 01:57:15;;;;;;;14.20;8.10;;;;;;;25.77;50.10;99458.64;107876;1254;60556;-66
2023/07/21 01:59:43;;;;;;;9.80;8.40;;;;;;;25.63;50.15;99459.30;108008;1256;73763;-68
2023/07/21 02:02:10;;;;;;;9.60;7.80;;;;;;;25.54;50.28;99466.41;107969;1254;69138;-69
2023/07/21 02:04:38;;;;;;;11.90;9.70;;;;;;;25.46;50.36;99463.73;107731;1259;72404;-69
2023/07/21 02:07:06;;;;;;;10.70;9.10;;;;;;;25.37;50.47;99465.62;108191;1254;61676;-69
2023/07/21 02:09:33;;;;;;;13.20;9.90;;;;;;;25.37;50.43;99471.35;108211;1253;60446;-69
2023/07/21 02:12:01;;;;;;;18.00;11.00;;;;;;;25.33;50.44;99477.67;108082;1254;73838;-69
2023/07/21 02:14:37;;;;;;;14.30;11.60;;;;;;;25.36;50.19;99472.22;108117;1254;70050;-68
2023/07/21 02:17:06;;;;;;;14.20;10.50;;;;;;;25.39;50.05;99475.61;108162;1253;72512;-68
2023/07/21 02:19:35;;;;;;;17.00;11.90;;;;;;;25.32;50.22;99476.75;108242;1256;61769;-69
2023/07/21 02:22:02;;;;;;;14.50;10.50;;;;;;;25.30;50.15;99486.83;108210;1253;60360;-67
2023/07/21 02:24:30;;;;;;;14.80;12.10;;;;;;;25.27;50.14;99489.09;108249;1253;73757;-69
2023/07/21 02:26:59;;;;;;;16.10;11.60;;;;;;;25.24;50.16;99492.66;108320;1254;70114;-70
2023/07/21 02:29:28;;;;;;;14.40;11.30;;;;;;;25.21;50.35;99497.00;108162;1254;72349;-69
2023/07/21 02:31:56;;;;;;;19.00;12.40;;;;;;;25.22;50.44;99503.13;108119;1254;62034;-69
2023/07/21 02:34:23;;;;;;;14.40;11.40;;;;;;;25.21;50.32;99507.04;108263;1253;60335;-68
2023/07/21 02:36:53;;;;;;;15.70;11.20;;;;;;;25.17;50.68;99508.32;108237;1253;73890;-69
2023/07/21 02:39:20;;;;;;;16.60;11.70;;;;;;;25.15;50.72;99508.60;108373;1253;70166;-70
2023/07/21 02:41:48;;;;;;;14.80;11.20;;;;;;;24.87;51.41;99513.31;108304;1253;72667;-69
2023/07/21 02:46:50;;;;;;;11.90;10.20;;;;;;;22.32;59.07;99518.98;105584;1282;601557;-69
2023/07/21 02:49:17;;;;;;;12.00;10.40;;;;;;;23.34;56.21;99521.86;107334;1265;59134;-69
2023/07/21 02:51:45;;;;;;;13.30;10.30;;;;;;;23.62;55.52;99524.50;107364;1265;60537;-69
2023/07/21 02:54:12;;;;;;;12.50;9.40;;;;;;;23.78;55.36;99527.07;107728;1258;71912;-68
2023/07/21 02:56:39;;;;;;;11.00;9.30;;;;;;;23.81;55.20;99528.85;107737;1257;70304;-70
2023/07/21 02:59:15;;;;;;;11.40;8.30;;;;;;;23.78;55.46;99529.36;107494;1256;445024;-70
2023/07/21 03:01:54;;;;;;;12.10;8.80;;;;;;;23.87;55.41;99521.63;107963;1256;61985;-69
2023/07/21 03:04:25;;;;;;;13.20;7.50;;;;;;;24.01;55.08;99524.63;107962;1256;60301;-70
2023/07/21 03:06:55;;;;;;;9.00;7.30;;;;;;;24.27;54.47;99524.50;108067;1256;72075;-69
2023/07/21 03:09:21;;;;;;;9.90;7.20;;;;;;;24.55;53.89;99528.56;108000;1255;70785;-70
2023/07/21 03:11:48;;;;;;;8.00;6.50;;;;;;;24.73;53.78;99534.58;108064;1255;73092;-69
2023/07/21 03:14:24;;;;;;;9.60;6.80;;;;;;;24.83;53.84;99537.30;107857;1256;61798;-70
2023/07/21 03:16:51;;;;;;;11.30;7.40;;;;;;;25.02;53.41;99545.75;108032;1255;60155;-70
2023/07/21 03:19:19;;;;;;;10.20;6.30;;;;;;;25.03;53.13;99550.39;108009;1259;72866;-70
2023/07/21 03:21:45;;;;;;;9.60;6.30;;;;;;;25.14;52.81;99551.42;107696;1256;69029;-70
2023/07/21 03:24:14;;;;;;;9.90;6.60;;;;;;;25.22;52.64;99552.54;107754;1257;71210;-70
2023/07/21 03:26:40;;;;;;;10.00;6.50;;;;;;;25.40;52.26;99553.34;107808;1257;61995;-70
2023/07/21 03:29:07;;;;;;;10.60;6.70;;;;;;;25.65;51.84;99555.43;107825;1257;60315;-70
2023/07/21 03:31:34;;;;;;;10.50;6.60;;;;;;;25.72;51.79;99555.23;107781;1259;71981;-70
2023/07/21 03:34:06;;;;;;;11.10;6.00;;;;;;;25.72;51.90;99555.35;107666;1259;70029;-70
2023/07/21 03:36:34;;;;;;;8.60;6.10;;;;;;;25.88;51.44;99560.84;107716;1257;72691;-70
2023/07/21 03:39:01;;;;;;;8.30;6.10;;;;;;;25.92;51.19;99561.17;107796;1258;61847;-70
2023/07/21 03:41:28;;;;;;;9.60;5.40;;;;;;;26.09;50.89;99561.59;107765;1257;59924;-68
2023/07/21 03:43:55;;;;;;;11.20;6.00;;;;;;;26.14;50.74;99560.30;107865;1258;73103;-69
2023/07/21 03:46:22;;;;;;;9.10;5.30;;;;;;;26.25;50.28;99554.45;107739;1257;70222;-69
2023/07/21 03:49:03;;;;;;;8.70;6.00;;;;;;;26.28;50.32;99559.27;107703;1262;72820;-70
2023/07/21 03:51:30;;;;;;;8.20;5.90;;;;;;;26.47;49.55;99560.21;107766;1262;61672;-70
2023/07/21 03:53:58;;;;;;;10.00;5.70;;;;;;;26.66;49.06;99564.63;107787;1256;60178;-69
2023/07/21 03:56:25;;;;;;;7.00;5.30;;;;;;;26.82;48.60;99569.39;107860;1256;72890;-69
2023/07/21 03:58:57;;;;;;;8.20;5.10;;;;;;;26.73;48.63;99572.23;107864;1256;70266;-68
2023/07/21 04:01:28;;;;;;;11.50;5.60;;;;;;;26.72;48.74;99576.83;107909;1256;72632;-70
2023/07/21 04:03:55;;;;;;;9.30;5.60;;;;;;;26.77;48.83;99580.12;107889;1256;61812;-68
2023/07/21 04:06:24;;;;;;;9.20;5.80;;;;;;;26.76;48.59;99584.47;107676;1256;60315;-66
2023/07/21 04:08:53;;;;;;;8.60;5.90;;;;;;;26.60;48.81;99581.83;107845;1256;72916;-69
2023/07/21 04:11:20;;;;;;;8.10;5.40;;;;;;;26.59;48.88;99588.41;107857;1257;70760;-67
2023/07/21 04:13:47;;;;;;;8.50;6.30;;;;;;;26.80;48.66;99585.34;108000;1255;72628;-68
2023/07/21 04:16:13;;;;;;;11.40;6.40;;;;;;;26.96;48.25;99587.27;107911;1259;61955;-69
2023/07/21 04:18:40;;;;;;;7.90;6.20;;;;;;;27.04;47.96;99591.20;107890;1256;60184;-70
2023/07/21 04:21:07;;;;;;;9.40;5.80;;;;;;;27.07;48.07;99595.55;107842;1255;72980;-70
2023/07/21 04:23:34;;;;;;;9.00;5.70;;;;;;;27.12;48.12;99597.14;107853;1256;70297;-68
2023/07/21 04:26:03;;;;;;;9.80;6.10;;;;;;;27.27;47.84;99600.71;107881;1258;72669;-69
2023/07/21 04:28:32;;;;;;;11.00;6.10;;;;;;;27.48;47.36;99603.70;107905;1259;61784;-68
2023/07/21 04:31:00;;;;;;;14.70;5.80;;;;;;;27.66;47.12;99603.88;107938;1255;60046;-69
2023/07/21 04:33:35;;;;;;;5.80;4.90;;;;;;;28.03;46.63;99609.55;107875;1260;72980;-68
2023/07/21 04:36:02;;;;;;;5.70;5.00;;;;;;;28.34;45.79;99611.17;107886;1257;69218;-68
2023/07/21 04:38:30;;;;;;;11.10;4.90;;;;;;;28.50;45.21;99610.86;107858;1256;72863;-67
2023/07/21 04:41:04;;;;;;;9.90;5.00;;;;;;;28.45;44.92;99614.98;107990;1256;61697;-69
2023/07/21 04:43:31;;;;;;;8.90;5.20;;;;;;;28.37;44.91;99619.16;107970;1256;60123;-68
2023/07/21 04:45:58;;;;;;;6.20;4.40;;;;;;;28.24;45.37;99623.73;107871;1256;59878;-70
2023/07/21 04:48:29;;;;;;;8.40;4.70;;;;;;;28.44;45.02;99625.34;107958;1256;69665;-69
2023/07/21 04:50:56;;;;;;;7.90;4.50;;;;;;;28.44;44.12;99628.66;107866;1256;72847;-69
2023/07/21 04:53:23;;;;;;;11.00;5.60;;;;;;;28.32;44.17;99635.23;107852;1260;62004;-69
2023/07/21 04:55:55;;;;;;;9.40;4.50;;;;;;;28.13;44.33;99640.78;107922;1255;60667;-70
2023/07/21 04:58:24;;;;;;;8.40;4.90;;;;;;;28.09;44.47;99640.92;107954;1256;73250;-69
2023/07/21 05:00:51;;;;;;;7.00;5.50;;;;;;;28.12;44.35;99641.77;107866;1257;70093;-71
2023/07/21 05:03:18;;;;;;;9.90;5.80;;;;;;;27.99;44.72;99647.73;107956;1256;71059;-70
2023/07/21 05:06:05;;;;;;;10.30;5.30;;;;;;;27.99;44.79;99643.38;107906;1256;60486;-69
2023/07/21 05:08:33;;;;;;;10.10;5.80;;;;;;;27.87;44.86;99641.37;107909;1256;60053;-72
2023/07/21 05:11:01;;;;;;;10.10;5.20;;;;;;;27.86;44.58;99643.29;108140;1252;72985;-70
2023/07/21 05:13:29;;;;;;;10.00;5.80;;;;;;;27.84;44.56;99644.42;108202;1252;70329;-70
2023/07/21 05:16:12;;;;;;;12.70;5.10;;;;;;;27.72;44.72;99648.80;108117;1253;72699;-70
2023/07/21 05:19:01;;;;;;;7.70;5.20;;;;;;;27.67;44.82;99649.35;108151;1252;60951;-70
2023/07/21 05:21:46;;;;;;;7.70;5.10;;;;;;;27.73;44.71;99652.08;108259;1253;60349;-70
2023/07/21 05:24:37;;;;;;;7.50;4.80;;;;;;;27.84;44.26;99652.91;108071;1253;72854;-69
2023/07/21 05:27:06;;;;;;;7.90;4.90;;;;;;;27.91;43.82;99657.33;108294;1253;70356;-70
2023/07/21 05:29:54;;;;;;;7.10;4.50;;;;;;;28.18;43.73;99660.77;108216;1253;72473;-70
2023/07/21 05:32:21;;;;;;;7.60;4.90;;;;;;;28.24;42.73;99662.75;108151;1252;61794;-69
2023/07/21 05:34:57;;;;;;;9.70;4.90;;;;;;;28.11;42.49;99672.08;108204;1252;60361;-70
2023/07/21 05:37:24;;;;;;;6.90;4.50;;;;;;;28.13;42.45;99679.26;108164;1255;73231;-69
2023/07/21 05:39:52;;;;;;;8.40;4.40;;;;;;;28.17;42.56;99677.33;108244;1253;70768;-70
2023/07/21 05:42:23;;;;;;;7.50;4.20;;;;;;;28.08;42.54;99676.38;108193;1253;73486;-70
2023/07/21 05:44:51;;;;;;;8.60;4.60;;;;;;;28.05;42.77;99675.16;108199;1252;61784;-70
2023/07/21 05:47:19;;;;;;;5.80;4.30;;;;;;;28.09;42.51;99676.07;108167;1253;60634;-69
2023/07/21 05:49:50;;;;;;;6.10;4.60;;;;;;;28.15;42.33;99676.80;108203;1253;72932;-71
2023/07/21 05:52:17;;;;;;;7.60;4.30;;;;;;;28.37;42.11;99678.41;108202;1253;70230;-70
2023/07/21 05:54:46;;;;;;;4.90;3.80;;;;;;;28.31;42.48;99677.23;108140;1253;71188;-72
2023/07/21 05:57:13;;;;;;;7.90;4.10;;;;;;;28.48;42.27;99679.91;108268;1258;62417;-70
2023/07/21 05:59:45;;;;;;;8.30;4.20;;;;;;;28.70;41.92;99678.55;108186;1252;60174;-70
2023/07/21 06:02:12;;;;;;;7.40;4.00;;;;;;;28.97;40.96;99678.87;108206;1253;72922;-70
2023/07/21 06:04:40;;;;;;;5.20;3.60;;;;;;;29.09;40.60;99684.51;108166;1252;70312;-70
2023/07/21 06:07:29;;;;;;;8.80;4.00;;;;;;;29.25;40.30;99690.34;108166;1252;72457;-70
2023/07/21 06:10:19;;;;;;;5.30;3.60;;;;;;;29.16;40.35;99689.66;108124;1255;61903;-70
2023/07/21 06:12:53;;;;;;;12.20;4.60;;;;;;;29.18;40.53;99688.93;108122;1255;60395;-70
2023/07/21 06:15:42;;;;;;;7.80;4.20;;;;;;;29.37;40.29;99686.23;108158;1252;73143;-68
2023/07/21 06:18:26;;;;;;;5.80;3.60;;;;;;;29.24;39.96;99684.14;108157;1253;70258;-70
2023/07/21 06:20:53;;;;;;;5.90;3.90;;;;;;;29.36;39.84;99689.04;108110;1253;72675;-69
2023/07/21 06:23:20;;;;;;;14.70;4.50;;;;;;;29.26;39.64;99694.88;107937;1258;62156;-69
2023/07/21 06:25:47;;;;;;;8.20;4.50;;;;;;;29.16;40.02;99697.75;108221;1252;60799;-70
2023/07/21 06:28:16;;;;;;;5.70;3.90;;;;;;;29.01;40.10;99697.92;108217;1253;73027;-70
2023/07/21 06:30:43;;;;;;;6.70;3.80;;;;;;;28.97;39.91;99695.67;108182;1253;70160;-69
2023/07/21 06:33:17;;;;;;;5.60;4.10;;;;;;;29.01;40.08;99705.85;108166;1253;71911;-69
2023/07/21 06:35:47;;;;;;;7.00;3.90;;;;;;;29.10;39.98;99708.98;108127;1255;61720;-69
2023/07/21 06:38:33;;;;;;;8.50;4.00;;;;;;;29.30;39.59;99711.57;108143;1256;60175;-70
2023/07/21 06:41:29;;;;;;;5.50;3.90;;;;;;;29.51;39.69;99713.05;107723;1253;73078;-70
2023/07/21 06:44:14;;;;;;;7.60;4.50;;;;;;;29.58;39.38;99713.23;108120;1253;70301;-70
2023/07/21 06:47:01;;;;;;;5.00;3.90;;;;;;;29.44;39.62;99718.48;108149;1253;71348;-70
2023/07/21 06:49:50;;;;;;;5.90;4.30;;;;;;;29.39;39.93;99715.14;108181;1253;62023;-70
2023/07/21 06:52:29;;;;;;;7.70;4.40;;;;;;;29.57;39.60;99718.19;108205;1253;60207;-71
2023/07/21 06:54:58;;;;;;;8.90;4.40;;;;;;;29.70;39.48;99717.50;108196;1253;73470;-71
2023/07/21 06:57:25;;;;;;;7.50;4.40;;;;;;;29.74;39.54;99717.61;108118;1253;69123;-71
2023/07/21 06:59:52;;;;;;;5.30;4.40;;;;;;;29.78;39.49;99717.99;108110;1257;72868;-70
2023/07/21 07:02:18;;;;;;;5.50;3.50;;;;;;;29.80;39.31;99720.85;108177;1253;62102;-71
2023/07/21 07:04:47;;;;;;;6.50;4.10;;;;;;;29.86;39.39;99725.61;108238;1253;60190;-70
2023/07/21 07:07:17;;;;;;;9.30;3.90;;;;;;;29.90;38.81;99731.34;108213;1253;73830;-70
2023/07/21 07:09:47;;;;;;;7.40;4.10;;;;;;;29.98;38.95;99730.15;108191;1253;69772;-72
2023/07/21 07:12:13;;;;;;;9.30;4.40;;;;;;;30.07;38.74;99737.06;108118;1256;73019;-69
2023/07/21 07:14:46;;;;;;;9.30;3.60;;;;;;;30.15;38.58;99741.77;108192;1252;61968;-70
2023/07/21 07:17:13;;;;;;;5.30;3.80;;;;;;;30.47;37.78;99745.01;108195;1253;60465;-70
2023/07/21 07:19:40;;;;;;;8.20;4.60;;;;;;;30.69;37.95;99744.56;108181;1253;73700;-69
2023/07/21 07:22:09;;;;;;;7.50;4.40;;;;;;;31.03;37.56;99743.10;108199;1253;70450;-69
2023/07/21 07:24:38;;;;;;;6.80;4.30;;;;;;;31.46;36.97;99737.05;108158;1253;72421;-69
2023/07/21 07:27:05;;;;;;;8.40;3.80;;;;;;;31.99;36.40;99731.05;108196;1253;60654;-70
2023/07/21 07:29:36;;;;;;;10.30;3.20;;;;;;;32.44;35.84;99732.94;108170;1253;60786;-71
2023/07/21 07:32:03;;;;;;;15.80;4.30;;;;;;;32.44;35.12;99732.60;108195;1253;74319;-69
2023/07/21 07:34:33;;;;;;;6.60;3.30;;;;;;;32.59;34.80;99733.89;108155;1253;70100;-71
2023/07/21 07:37:00;;;;;;;5.00;3.40;;;;;;;32.24;33.75;99729.01;108114;1253;71219;-70
2023/07/21 07:39:27;;;;;;;9.20;3.10;;;;;;;32.23;34.13;99732.38;108141;1253;60358;-70
2023/07/21 07:41:54;;;;;;;6.20;2.80;;;;;;;32.49;34.13;99734.70;108126;1253;60364;-69
2023/07/21 07:44:21;;;;;;;6.20;3.00;;;;;;;32.59;33.79;99739.21;108173;1253;73821;-71
2023/07/21 07:46:47;;;;;;;7.30;3.20;;;;;;;32.75;33.66;99735.73;108153;1253;70515;-71
2023/07/21 07:49:14;;;;;;;4.40;2.90;;;;;;;33.22;33.17;99725.60;108286;1254;72983;-71
2023/07/21 07:51:40;;;;;;;4.70;2.90;;;;;;;33.66;32.61;99722.55;108107;1253;60346;-71
2023/07/21 07:54:07;;;;;;;4.60;2.40;;;;;;;34.01;31.93;99725.00;108119;1253;59580;-70
2023/07/21 07:56:34;;;;;;;6.00;2.60;;;;;;;34.45;31.52;99730.70;108169;1253;65285;-70
2023/07/21 07:59:01;;;;;;;7.50;3.00;;;;;;;34.71;30.62;99731.39;108106;1253;61670;-70
2023/07/21 08:01:27;;;;;;;5.80;2.90;;;;;;;34.56;30.17;99732.05;108115;1253;63889;-71
2023/07/21 08:03:54;;;;;;;6.50;2.80;;;;;;;34.17;30.33;99730.78;108195;1254;60349;-71
2023/07/21 08:06:25;;;;;;;4.00;1.90;;;;;;;34.03;30.73;99734.06;108149;1253;60419;-71
2023/07/21 08:08:52;;;;;;;5.60;2.90;;;;;;;34.09;30.91;99737.66;108159;1253;65027;-71
2023/07/21 08:11:19;;;;;;;4.10;2.50;;;;;;;34.33;30.91;99737.34;108183;1253;61458;-70
2023/07/21 08:13:45;;;;;;;4.90;2.30;;;;;;;34.62;30.18;99739.57;108094;1253;60351;-71
2023/07/21 08:16:13;;;;;;;6.50;2.30;;;;;;;34.69;29.72;99743.19;107992;1253;60483;-70
2023/07/21 08:18:41;;;;;;;6.30;2.40;;;;;;;34.62;30.07;99744.66;108164;1253;60426;-70
2023/07/21 08:21:21;;;;;;;3.20;2.20;;;;;;;34.92;29.84;99740.33;108139;1257;65252;-72
2023/07/21 08:23:49;;;;;;;;;;;;;;;35.16;29.49;99741.67;108221;1253;61523;-71
2023/07/21 08:26:17;;;;;;;3.90;2.00;;;;;;;35.43;29.24;99744.89;108117;1253;64028;-70
2023/07/21 08:28:44;;;;;;;3.00;2.00;;;;;;;35.75;28.60;99742.83;108205;1253;60347;-70
2023/07/21 08:31:12;;;;;;;5.10;2.50;;;;;;;35.82;28.01;99745.83;108260;1253;60302;-71
2023/07/21 08:33:39;;;;;;;2.80;1.90;;;;;;;36.01;27.91;99748.47;108181;1253;65224;-70
2023/07/21 08:36:06;;;;;;;3.90;2.30;;;;;;;36.39;26.84;99749.80;108235;1253;61462;-70
2023/07/21 08:38:35;;;;;;;3.70;1.70;;;;;;;36.49;26.58;99749.19;108186;1253;64055;-71
2023/07/21 08:41:07;;;;;;;6.00;2.40;;;;;;;36.65;26.97;99754.81;108179;1253;60415;-71
2023/07/21 08:43:34;;;;;;;2.70;1.80;;;;;;;36.78;26.56;99761.11;108167;1253;60438;-70
2023/07/21 08:46:03;;;;;;;4.00;1.80;;;;;;;36.67;25.90;99764.64;108135;1253;65069;-71
2023/07/21 08:48:30;;;;;;;3.50;2.00;;;;;;;36.62;25.69;99758.14;108161;1253;61825;-71
2023/07/21 08:50:57;;;;;;;2.30;1.50;;;;;;;36.29;25.35;99757.23;108138;1255;63822;-70
2023/07/21 08:53:24;;;;;;;7.00;1.90;;;;;;;36.48;25.85;99757.89;108218;1253;60435;-72
2023/07/21 08:55:57;;;;;;;4.30;1.80;;;;;;;36.75;25.87;99755.90;108100;1253;60524;-70
2023/07/21 08:58:25;;;;;;;2.10;1.20;;;;;;;36.81;25.39;99761.51;108248;1253;65256;-70
2023/07/21 09:00:55;;;;;;;4.30;1.60;;;;;;;36.47;25.38;99762.38;108186;1253;61719;-70
2023/07/21 09:03:29;;;;;;;4.70;1.80;;;;;;;36.25;25.69;99764.27;108141;1253;63887;-72
2023/07/21 09:05:57;;;;;;;3.30;1.50;;;;;;;36.40;25.21;99759.53;108194;1253;60429;-72
2023/07/21 09:08:27;;;;;;;2.10;1.40;;;;;;;36.78;25.07;99759.19;108197;1256;60432;-72
2023/07/21 09:11:01;;;;;;;2.20;1.10;;;;;;;36.99;24.31;99765.08;108151;1253;63651;-69
2023/07/21 09:13:28;;;;;;;3.60;1.30;;;;;;;37.36;23.81;99760.42;108167;1252;61567;-71
2023/07/21 09:15:56;;;;;;;2.70;1.40;;;;;;;37.61;23.49;99765.81;108220;1253;63743;-71
2023/07/21 09:18:34;;;;;;;3.50;1.50;;;;;;;37.67;23.11;99764.50;108240;1253;59152;-71
2023/07/21 09:21:01;;;;;;;2.70;1.20;;;;;;;37.78;23.08;99766.64;108155;1253;60697;-71
2023/07/21 09:23:29;;;;;;;3.10;1.20;;;;;;;38.05;22.70;99761.19;108173;1253;65284;-71
2023/07/21 09:25:57;;;;;;;5.70;1.20;;;;;;;38.29;22.35;99759.43;108169;1253;61635;-71
2023/07/21 09:28:51;;;;;;;3.40;1.30;;;;;;;38.35;22.84;99763.77;108139;1257;64155;-71
2023/07/21 09:31:17;;;;;;;7.30;1.30;;;;;;;38.48;22.53;99768.58;108147;1253;60348;-72
2023/07/21 09:33:45;;;;;;;2.60;1.40;;;;;;;38.66;22.41;99767.45;108082;1253;60366;-71
2023/07/21 09:36:15;;;;;;;2.60;1.30;;;;;;;38.60;22.79;99767.84;108125;1253;65136;-70
2023/07/21 09:38:43;;;;;;;1.50;1.20;;;;;;;38.60;22.95;99768.95;108257;1257;62730;-70
2023/07/21 09:41:11;;;;;;;3.40;1.70;;;;;;;38.96;22.53;99767.29;108193;1254;63976;-70
2023/07/21 09:43:39;;;;;;;19.20;2.80;;;;;;;39.07;22.14;99763.16;108203;1253;60306;-70
2023/07/21 09:46:09;;;;;;;3.60;1.20;;;;;;;38.84;22.27;99762.25;108181;1256;59457;-70
2023/07/21 09:48:56;;;;;;;4.40;1.40;;;;;;;38.76;21.86;99766.20;108122;1257;66516;-71
2023/07/21 09:51:26;;;;;;;1.80;1.00;;;;;;;38.95;21.85;99769.80;108155;1253;61993;-71
2023/07/21 09:53:53;;;;;;;6.70;1.40;;;;;;;39.05;21.33;99767.92;107975;1254;64042;-70
2023/07/21 09:56:22;;;;;;;2.90;1.20;;;;;;;39.25;21.55;99769.29;108119;1253;60725;-70
2023/07/21 09:58:53;;;;;;;1.70;1.10;;;;;;;39.34;21.89;99771.24;108209;1253;59204;-70
2023/07/21 10:01:21;;;;;;;2.90;1.30;;;;;;;39.27;21.81;99779.58;108393;1257;63854;-71
2023/07/21 10:03:48;;;;;;;2.60;1.10;;;;;;;39.11;21.51;99780.16;108212;1258;61605;-70
2023/07/21 10:06:15;;;;;;;4.00;1.30;;;;;;;39.12;21.19;99777.15;108181;1253;64059;-71
2023/07/21 10:08:42;;;;;;;2.30;1.10;;;;;;;39.20;21.12;99777.17;108162;1254;60345;-70
2023/07/21 10:11:09;;;;;;;3.00;1.10;;;;;;;39.15;21.23;99781.71;108194;1255;60458;-70
2023/07/21 10:13:47;;;;;;;3.60;1.10;;;;;;;38.93;21.21;99780.83;108226;1253;65153;-70
2023/07/21 10:16:14;;;;;;;3.30;1.30;;;;;;;38.99;21.70;99783.19;108240;1256;61537;-71
2023/07/21 10:19:10;;;;;;;3.40;1.20;;;;;;;38.85;21.66;99789.39;108201;1257;64376;-71
2023/07/21 10:21:53;;;;;;;2.20;1.20;;;;;;;38.67;21.76;99790.80;108191;1254;61105;-71
2023/07/21 10:24:24;;;;;;;1.90;1.10;;;;;;;38.92;21.43;99789.58;108096;1259;60649;-71
2023/07/21 10:27:01;;;;;;;1.10;0.90;;;;;;;39.12;21.00;99788.01;108135;1254;63839;-71
2023/07/21 10:29:28;;;;;;;2.90;1.40;;;;;;;39.05;20.37;99785.36;108116;1255;61797;-70
2023/07/21 10:31:56;;;;;;;3.80;1.10;;;;;;;38.71;20.59;99787.13;108043;1258;63997;-71
2023/07/21 10:34:26;;;;;;;3.70;1.30;;;;;;;38.60;20.85;99788.66;108161;1257;60375;-70
2023/07/21 10:36:53;;;;;;;2.00;0.90;;;;;;;38.55;21.24;99791.99;108145;1253;59153;-71
2023/07/21 10:39:24;;;;;;;1.00;0.90;;;;;;;38.48;21.35;99790.70;108081;1257;65172;-70
2023/07/21 10:41:53;;;;;;;2.60;1.20;;;;;;;38.15;21.46;99791.06;108132;1254;61355;-71
2023/07/21 10:44:20;;;;;;;1.30;0.90;;;;;;;37.98;21.74;99792.77;108052;1257;62832;-71
2023/07/21 10:46:48;;;;;;;2.80;1.00;;;;;;;37.86;21.89;99789.93;108102;1255;60421;-70
2023/07/21 10:49:16;;;;;;;1.30;0.90;;;;;;;37.79;21.84;99793.88;108165;1256;60329;-70
2023/07/21 10:51:44;;;;;;;2.00;1.00;;;;;;;37.81;22.10;99792.70;108140;1256;65094;-70
2023/07/21 10:54:12;;;;;;;1.60;0.80;;;;;;;37.88;22.10;99793.23;108120;1257;61711;-70
2023/07/21 10:56:46;;;;;;;1.80;0.80;;;;;;;37.96;22.11;99792.51;108130;1254;63939;-72
2023/07/21 10:59:15;;;;;;;1.10;0.90;;;;;;;37.84;21.98;99794.31;108110;1254;60339;-71
2023/07/21 11:01:46;;;;;;;3.80;1.10;;;;;;;37.87;22.11;99793.37;108136;1254;60371;-70
2023/07/21 11:04:20;;;;;;;2.20;1.10;;;;;;;37.82;22.25;99796.29;108094;1257;65223;-72
2023/07/21 11:06:53;;;;;;;2.20;1.10;;;;;;;37.91;22.01;99795.91;108080;1255;61519;-72
2023/07/21 11:09:22;;;;;;;3.20;1.10;;;;;;;37.97;21.85;99798.25;108029;1254;64160;-72
2023/07/21 11:11:52;;;;;;;2.40;1.10;;;;;;;38.04;21.70;99795.23;108184;1254;60357;-71
2023/07/21 11:14:24;;;;;;;1.00;0.90;;;;;;;38.11;21.29;99789.65;108167;1255;60528;-71
2023/07/21 11:17:01;;;;;;;2.20;1.20;;;;;;;38.13;21.45;99790.71;108153;1254;63645;-71
2023/07/21 11:19:33;;;;;;;2.90;1.00;;;;;;;38.22;21.77;99795.16;108135;1253;61756;-71
2023/07/21 11:21:59;;;;;;;1.50;1.00;;;;;;;38.18;21.52;99800.92;108186;1253;63806;-70
2023/07/21 11:24:29;;;;;;;1.30;1.00;;;;;;;38.16;21.68;99797.16;108111;1255;60436;-71
2023/07/21 11:27:01;;;;;;;1.30;1.00;;;;;;;38.32;21.58;99794.14;108243;1256;59133;-72
2023/07/21 11:29:32;;;;;;;1.30;1.00;;;;;;;38.32;21.24;99790.50;108273;1256;65566;-71
2023/07/21 11:31:59;;;;;;;2.60;1.10;;;;;;;38.19;21.57;99795.62;108257;1254;61728;-70
2023/07/21 11:34:27;;;;;;;1.20;1.00;;;;;;;38.39;21.56;99794.65;108156;1256;63921;-70
2023/07/21 11:36:58;;;;;;;1.70;1.00;;;;;;;38.46;21.05;99797.42;108335;1254;60405;-72